sensor_id;sensor_type;location;lat;lon;timestamp;temperature;humidity
5176;DHT22;2607;50.934;6.934;2022-09-17T00:01:29;10.60;99.90
5176;DHT22;2607;50.934;6.934;2022-09-17T00:03:58;10.70;99.90
5176;DHT22;2607;50.934;6.934;2022-09-17T00:06:29;10.70;99.90
5176;DHT22;2607;50.934;6.934;2022-09-17T00:08:55;10.70;99.90
5176;DHT22;2607;50.934;6.934;2022-09-17T00:11:24;10.70;99.90
5176;DHT22;2607;50.934;6.934;2022-09-17T00:13:51;10.70;99.90
5176;DHT22;2607;50.934;6.934;2022-09-17T00:18:54;10.80;99.90
5176;DHT22;2607;50.934;6.934;2022-09-17T00:21:20;10.80;99.90
5176;DHT22;2607;50.934;6.934;2022-09-17T00:23:46;10.80;99.90
5176;DHT22;2607;50.934;6.934;2022-09-17T00:26:11;10.80;99.90
5176;DHT22;2607;50.934;6.934;2022-09-17T00:28:37;10.80;99.90
5176;DHT22;2607;50.934;6.934;2022-09-17T00:31:07;10.80;99.90
5176;DHT22;2607;50.934;6.934;2022-09-17T00:33:33;10.80;99.90
5176;DHT22;2607;50.934;6.934;2022-09-17T00:36:00;10.80;99.90
5176;DHT22;2607;50.934;6.934;2022-09-17T00:38:27;10.80;99.90
5176;DHT22;2607;50.934;6.934;2022-09-17T00:40:52;10.80;99.90
5176;DHT22;2607;50.934;6.934;2022-09-17T00:43:49;10.80;99.90
5176;DHT22;2607;50.934;6.934;2022-09-17T00:46:35;10.80;99.90
5176;DHT22;2607;50.934;6.934;2022-09-17T00:49:11;10.80;99.90
5176;DHT22;2607;50.934;6.934;2022-09-17T00:51:42;10.80;99.90
5176;DHT22;2607;50.934;6.934;2022-09-17T00:54:10;10.80;99.90
5176;DHT22;2607;50.934;6.934;2022-09-17T00:56:38;10.90;99.90
5176;DHT22;2607;50.934;6.934;2022-09-17T00:59:05;10.90;99.90
5176;DHT22;2607;50.934;6.934;2022-09-17T01:01:31;10.90;99.90
5176;DHT22;2607;50.934;6.934;2022-09-17T01:03:57;10.90;99.90
5176;DHT22;2607;50.934;6.934;2022-09-17T01:06:43;10.90;99.90
5176;DHT22;2607;50.934;6.934;2022-09-17T01:22:17;10.90;99.90
5176;DHT22;2607;50.934;6.934;2022-09-17T01:30:42;10.90;99.90
5176;DHT22;2607;50.934;6.934;2022-09-17T01:33:59;10.90;99.90
5176;DHT22;2607;50.934;6.934;2022-09-17T01:37:38;10.90;99.90
5176;DHT22;2607;50.934;6.934;2022-09-17T01:39:52;10.90;99.90
5176;DHT22;2607;50.934;6.934;2022-09-17T01:45:09;10.90;99.90
5176;DHT22;2607;50.934;6.934;2022-09-17T01:47:42;10.90;99.90
5176;DHT22;2607;50.934;6.934;2022-09-17T01:50:18;10.90;99.90
5176;DHT22;2607;50.934;6.934;2022-09-17T01:52:48;10.90;99.90
5176;DHT22;2607;50.934;6.934;2022-09-17T01:55:16;10.90;99.90
5176;DHT22;2607;50.934;6.934;2022-09-17T01:57:55;10.90;99.90
5176;DHT22;2607;50.934;6.934;2022-09-17T02:00:22;10.90;99.90
5176;DHT22;2607;50.934;6.934;2022-09-17T02:03:00;10.80;99.90
5176;DHT22;2607;50.934;6.934;2022-09-17T02:05:42;10.80;99.90
5176;DHT22;2607;50.934;6.934;2022-09-17T02:08:22;10.80;99.90
5176;DHT22;2607;50.934;6.934;2022-09-17T02:10:58;10.80;99.90
5176;DHT22;2607;50.934;6.934;2022-09-17T02:13:37;10.90;99.90
5176;DHT22;2607;50.934;6.934;2022-09-17T02:16:12;10.90;99.90
5176;DHT22;2607;50.934;6.934;2022-09-17T02:18:49;10.90;99.90
5176;DHT22;2607;50.934;6.934;2022-09-17T02:21:29;10.90;99.90
5176;DHT22;2607;50.934;6.934;2022-09-17T02:24:15;10.90;99.90
5176;DHT22;2607;50.934;6.934;2022-09-17T02:26:50;10.90;99.90
5176;DHT22;2607;50.934;6.934;2022-09-17T02:29:40;10.90;99.90
5176;DHT22;2607;50.934;6.934;2022-09-17T02:32:07;10.80;99.90
5176;DHT22;2607;50.934;6.934;2022-09-17T02:34:33;10.80;99.90
5176;DHT22;2607;50.934;6.934;2022-09-17T02:37:00;10.80;99.90
5176;DHT22;2607;50.934;6.934;2022-09-17T02:39:26;10.80;99.90
5176;DHT22;2607;50.934;6.934;2022-09-17T02:41:57;10.80;99.90
5176;DHT22;2607;50.934;6.934;2022-09-17T02:50:13;10.80;99.90
5176;DHT22;2607;50.934;6.934;2022-09-17T03:00:25;10.90;99.90
5176;DHT22;2607;50.934;6.934;2022-09-17T03:03:00;10.90;99.90
5176;DHT22;2607;50.934;6.934;2022-09-17T03:05:28;10.90;99.90
5176;DHT22;2607;50.934;6.934;2022-09-17T03:07:55;10.90;99.90
5176;DHT22;2607;50.934;6.934;2022-09-17T03:10:22;10.90;99.90
5176;DHT22;2607;50.934;6.934;2022-09-17T03:12:48;10.90;99.90
5176;DHT22;2607;50.934;6.934;2022-09-17T03:15:14;11.00;99.90
5176;DHT22;2607;50.934;6.934;2022-09-17T03:17:39;11.00;99.90
5176;DHT22;2607;50.934;6.934;2022-09-17T03:20:05;11.00;99.90
5176;DHT22;2607;50.934;6.934;2022-09-17T03:22:31;11.00;99.90
5176;DHT22;2607;50.934;6.934;2022-09-17T03:24:56;11.00;99.90
5176;DHT22;2607;50.934;6.934;2022-09-17T03:27:22;11.00;99.90
5176;DHT22;2607;50.934;6.934;2022-09-17T03:29:47;11.00;99.90
5176;DHT22;2607;50.934;6.934;2022-09-17T03:32:13;11.00;99.90
5176;DHT22;2607;50.934;6.934;2022-09-17T03:34:39;11.00;99.90
5176;DHT22;2607;50.934;6.934;2022-09-17T03:37:04;11.00;99.90
5176;DHT22;2607;50.934;6.934;2022-09-17T03:39:30;11.10;99.90
5176;DHT22;2607;50.934;6.934;2022-09-17T03:41:55;11.10;99.90
5176;DHT22;2607;50.934;6.934;2022-09-17T03:44:21;11.00;99.90
5176;DHT22;2607;50.934;6.934;2022-09-17T03:46:48;11.10;99.90
5176;DHT22;2607;50.934;6.934;2022-09-17T03:49:14;11.10;99.90
5176;DHT22;2607;50.934;6.934;2022-09-17T03:51:39;11.00;99.90
5176;DHT22;2607;50.934;6.934;2022-09-17T03:54:05;11.00;99.90
5176;DHT22;2607;50.934;6.934;2022-09-17T03:56:31;11.00;99.90
5176;DHT22;2607;50.934;6.934;2022-09-17T03:59:00;11.00;99.90
5176;DHT22;2607;50.934;6.934;2022-09-17T04:01:27;11.00;99.90
5176;DHT22;2607;50.934;6.934;2022-09-17T04:03:53;11.00;99.90
5176;DHT22;2607;50.934;6.934;2022-09-17T04:06:19;11.00;99.90
5176;DHT22;2607;50.934;6.934;2022-09-17T04:08:44;11.00;99.90
5176;DHT22;2607;50.934;6.934;2022-09-17T04:11:10;11.00;99.90
5176;DHT22;2607;50.934;6.934;2022-09-17T04:13:36;11.00;99.90
5176;DHT22;2607;50.934;6.934;2022-09-17T04:16:02;11.10;99.90
5176;DHT22;2607;50.934;6.934;2022-09-17T04:18:28;11.10;99.90
5176;DHT22;2607;50.934;6.934;2022-09-17T04:20:53;11.10;99.90
5176;DHT22;2607;50.934;6.934;2022-09-17T04:23:19;11.10;99.90
5176;DHT22;2607;50.934;6.934;2022-09-17T04:25:45;11.10;99.90
5176;DHT22;2607;50.934;6.934;2022-09-17T04:28:10;11.10;99.90
5176;DHT22;2607;50.934;6.934;2022-09-17T04:30:36;11.10;99.90
5176;DHT22;2607;50.934;6.934;2022-09-17T04:33:02;11.10;99.90
5176;DHT22;2607;50.934;6.934;2022-09-17T04:35:28;11.10;99.90
5176;DHT22;2607;50.934;6.934;2022-09-17T04:37:55;11.10;99.90
5176;DHT22;2607;50.934;6.934;2022-09-17T04:40:22;11.00;99.90
5176;DHT22;2607;50.934;6.934;2022-09-17T04:42:51;11.00;99.90
5176;DHT22;2607;50.934;6.934;2022-09-17T04:45:17;11.00;99.90
5176;DHT22;2607;50.934;6.934;2022-09-17T04:47:43;11.00;99.90
5176;DHT22;2607;50.934;6.934;2022-09-17T04:50:08;11.00;99.90
5176;DHT22;2607;50.934;6.934;2022-09-17T04:52:35;11.00;99.90
5176;DHT22;2607;50.934;6.934;2022-09-17T04:55:01;11.00;99.90
5176;DHT22;2607;50.934;6.934;2022-09-17T04:57:26;11.00;99.90
5176;DHT22;2607;50.934;6.934;2022-09-17T04:59:52;10.90;99.90
5176;DHT22;2607;50.934;6.934;2022-09-17T05:02:17;10.90;99.90
5176;DHT22;2607;50.934;6.934;2022-09-17T05:04:43;10.90;99.90
5176;DHT22;2607;50.934;6.934;2022-09-17T05:07:09;10.90;99.90
5176;DHT22;2607;50.934;6.934;2022-09-17T05:09:34;10.90;99.90
5176;DHT22;2607;50.934;6.934;2022-09-17T05:12:00;10.90;99.90
5176;DHT22;2607;50.934;6.934;2022-09-17T05:14:25;10.90;99.90
5176;DHT22;2607;50.934;6.934;2022-09-17T05:16:51;10.90;99.90
5176;DHT22;2607;50.934;6.934;2022-09-17T05:19:16;10.90;99.90
5176;DHT22;2607;50.934;6.934;2022-09-17T05:21:42;10.90;99.90
5176;DHT22;2607;50.934;6.934;2022-09-17T05:24:07;10.90;99.90
5176;DHT22;2607;50.934;6.934;2022-09-17T05:26:33;10.90;99.90
5176;DHT22;2607;50.934;6.934;2022-09-17T05:28:59;10.90;99.90
5176;DHT22;2607;50.934;6.934;2022-09-17T05:31:24;10.80;99.90
5176;DHT22;2607;50.934;6.934;2022-09-17T05:33:50;10.80;99.90
5176;DHT22;2607;50.934;6.934;2022-09-17T05:36:15;10.80;99.90
5176;DHT22;2607;50.934;6.934;2022-09-17T05:38:41;10.80;99.90
5176;DHT22;2607;50.934;6.934;2022-09-17T05:41:07;10.80;99.90
5176;DHT22;2607;50.934;6.934;2022-09-17T05:43:33;10.80;99.90
5176;DHT22;2607;50.934;6.934;2022-09-17T05:46:03;10.80;99.90
5176;DHT22;2607;50.934;6.934;2022-09-17T05:48:29;10.80;99.90
5176;DHT22;2607;50.934;6.934;2022-09-17T05:50:55;10.80;99.90
5176;DHT22;2607;50.934;6.934;2022-09-17T05:53:20;10.80;99.90
5176;DHT22;2607;50.934;6.934;2022-09-17T05:55:46;10.80;99.90
5176;DHT22;2607;50.934;6.934;2022-09-17T05:58:14;10.80;99.90
5176;DHT22;2607;50.934;6.934;2022-09-17T06:00:40;10.80;99.90
5176;DHT22;2607;50.934;6.934;2022-09-17T06:03:11;10.80;99.90
5176;DHT22;2607;50.934;6.934;2022-09-17T06:05:37;10.90;99.90
5176;DHT22;2607;50.934;6.934;2022-09-17T06:08:03;10.90;99.90
5176;DHT22;2607;50.934;6.934;2022-09-17T06:10:30;10.90;99.90
5176;DHT22;2607;50.934;6.934;2022-09-17T06:12:59;11.00;99.90
5176;DHT22;2607;50.934;6.934;2022-09-17T06:15:26;11.00;99.90
5176;DHT22;2607;50.934;6.934;2022-09-17T06:17:51;11.00;99.90
5176;DHT22;2607;50.934;6.934;2022-09-17T06:20:18;11.00;99.90
5176;DHT22;2607;50.934;6.934;2022-09-17T06:22:44;11.10;99.90
5176;DHT22;2607;50.934;6.934;2022-09-17T06:25:10;11.20;99.90
5176;DHT22;2607;50.934;6.934;2022-09-17T06:27:36;11.20;99.90
5176;DHT22;2607;50.934;6.934;2022-09-17T06:30:02;11.20;99.90
5176;DHT22;2607;50.934;6.934;2022-09-17T06:32:28;11.30;99.90
5176;DHT22;2607;50.934;6.934;2022-09-17T06:34:54;11.30;99.90
5176;DHT22;2607;50.934;6.934;2022-09-17T06:37:29;11.30;99.90
5176;DHT22;2607;50.934;6.934;2022-09-17T06:39:56;11.40;99.90
5176;DHT22;2607;50.934;6.934;2022-09-17T06:42:23;11.50;99.90
5176;DHT22;2607;50.934;6.934;2022-09-17T06:44:49;11.40;99.90
5176;DHT22;2607;50.934;6.934;2022-09-17T06:47:15;11.50;99.90
5176;DHT22;2607;50.934;6.934;2022-09-17T06:49:40;11.50;99.90
5176;DHT22;2607;50.934;6.934;2022-09-17T06:52:06;11.50;99.90
5176;DHT22;2607;50.934;6.934;2022-09-17T06:54:31;11.50;99.90
5176;DHT22;2607;50.934;6.934;2022-09-17T06:56:57;11.50;99.90
5176;DHT22;2607;50.934;6.934;2022-09-17T06:59:23;11.50;99.90
5176;DHT22;2607;50.934;6.934;2022-09-17T07:01:50;11.50;99.90
5176;DHT22;2607;50.934;6.934;2022-09-17T07:04:16;11.50;99.90
5176;DHT22;2607;50.934;6.934;2022-09-17T07:06:44;11.50;99.90
5176;DHT22;2607;50.934;6.934;2022-09-17T07:09:11;11.50;99.90
5176;DHT22;2607;50.934;6.934;2022-09-17T07:11:37;11.50;99.90
5176;DHT22;2607;50.934;6.934;2022-09-17T07:14:03;11.50;99.90
5176;DHT22;2607;50.934;6.934;2022-09-17T07:16:29;11.50;99.90
5176;DHT22;2607;50.934;6.934;2022-09-17T07:18:57;11.60;99.90
5176;DHT22;2607;50.934;6.934;2022-09-17T07:21:23;11.60;99.90
5176;DHT22;2607;50.934;6.934;2022-09-17T07:23:50;11.70;99.90
5176;DHT22;2607;50.934;6.934;2022-09-17T07:26:16;11.70;99.90
5176;DHT22;2607;50.934;6.934;2022-09-17T07:28:42;11.80;99.90
5176;DHT22;2607;50.934;6.934;2022-09-17T07:31:11;11.80;99.90
5176;DHT22;2607;50.934;6.934;2022-09-17T07:33:38;11.80;99.90
5176;DHT22;2607;50.934;6.934;2022-09-17T07:36:10;11.90;99.90
5176;DHT22;2607;50.934;6.934;2022-09-17T07:38:36;11.80;99.90
5176;DHT22;2607;50.934;6.934;2022-09-17T07:41:11;11.80;99.90
5176;DHT22;2607;50.934;6.934;2022-09-17T07:43:38;11.80;99.90
5176;DHT22;2607;50.934;6.934;2022-09-17T07:46:04;11.80;99.90
5176;DHT22;2607;50.934;6.934;2022-09-17T07:48:31;11.90;99.90
5176;DHT22;2607;50.934;6.934;2022-09-17T07:50:57;11.90;99.90
5176;DHT22;2607;50.934;6.934;2022-09-17T07:53:23;11.90;99.90
5176;DHT22;2607;50.934;6.934;2022-09-17T07:55:57;11.90;99.90
5176;DHT22;2607;50.934;6.934;2022-09-17T07:58:27;11.90;99.90
5176;DHT22;2607;50.934;6.934;2022-09-17T08:00:53;11.90;99.90
5176;DHT22;2607;50.934;6.934;2022-09-17T08:03:24;11.90;99.90
5176;DHT22;2607;50.934;6.934;2022-09-17T08:05:49;12.00;99.90
5176;DHT22;2607;50.934;6.934;2022-09-17T08:08:15;12.00;99.90
5176;DHT22;2607;50.934;6.934;2022-09-17T08:10:40;12.00;99.90
5176;DHT22;2607;50.934;6.934;2022-09-17T08:13:06;12.10;99.90
5176;DHT22;2607;50.934;6.934;2022-09-17T08:15:31;12.10;99.90
5176;DHT22;2607;50.934;6.934;2022-09-17T08:17:57;12.10;99.90
5176;DHT22;2607;50.934;6.934;2022-09-17T08:20:22;12.20;99.90
5176;DHT22;2607;50.934;6.934;2022-09-17T08:22:57;12.20;99.90
5176;DHT22;2607;50.934;6.934;2022-09-17T08:25:22;12.30;99.90
5176;DHT22;2607;50.934;6.934;2022-09-17T08:27:52;12.40;99.90
5176;DHT22;2607;50.934;6.934;2022-09-17T08:30:18;12.50;99.90
5176;DHT22;2607;50.934;6.934;2022-09-17T08:32:44;12.60;99.90
5176;DHT22;2607;50.934;6.934;2022-09-17T08:35:09;12.70;99.90
5176;DHT22;2607;50.934;6.934;2022-09-17T08:37:36;12.70;99.90
5176;DHT22;2607;50.934;6.934;2022-09-17T08:40:01;12.80;99.90
5176;DHT22;2607;50.934;6.934;2022-09-17T08:42:45;12.70;99.90
5176;DHT22;2607;50.934;6.934;2022-09-17T08:45:14;12.70;99.90
5176;DHT22;2607;50.934;6.934;2022-09-17T08:47:43;12.80;99.90
5176;DHT22;2607;50.934;6.934;2022-09-17T08:50:39;12.70;99.90
5176;DHT22;2607;50.934;6.934;2022-09-17T08:53:15;12.60;99.90
5176;DHT22;2607;50.934;6.934;2022-09-17T08:56:17;12.70;99.90
5176;DHT22;2607;50.934;6.934;2022-09-17T08:59:36;12.70;99.90
5176;DHT22;2607;50.934;6.934;2022-09-17T09:02:12;12.70;99.90
5176;DHT22;2607;50.934;6.934;2022-09-17T09:07:33;12.80;99.90
5176;DHT22;2607;50.934;6.934;2022-09-17T09:10:17;12.90;99.90
5176;DHT22;2607;50.934;6.934;2022-09-17T09:12:44;13.00;99.90
5176;DHT22;2607;50.934;6.934;2022-09-17T09:17:45;13.10;99.90
5176;DHT22;2607;50.934;6.934;2022-09-17T09:20:27;13.10;99.90
5176;DHT22;2607;50.934;6.934;2022-09-17T09:22:58;13.20;99.90
5176;DHT22;2607;50.934;6.934;2022-09-17T09:25:34;13.20;99.90
5176;DHT22;2607;50.934;6.934;2022-09-17T09:33:43;13.20;99.90
5176;DHT22;2607;50.934;6.934;2022-09-17T09:36:13;13.30;99.90
5176;DHT22;2607;50.934;6.934;2022-09-17T09:38:45;13.30;99.90
5176;DHT22;2607;50.934;6.934;2022-09-17T09:41:22;13.30;99.90
5176;DHT22;2607;50.934;6.934;2022-09-17T09:44:00;13.30;99.90
5176;DHT22;2607;50.934;6.934;2022-09-17T09:57:55;13.30;99.90
5176;DHT22;2607;50.934;6.934;2022-09-17T10:00:33;13.40;99.90
5176;DHT22;2607;50.934;6.934;2022-09-17T10:03:13;13.50;99.90
5176;DHT22;2607;50.934;6.934;2022-09-17T10:05:50;13.60;99.90
5176;DHT22;2607;50.934;6.934;2022-09-17T10:08:16;13.70;99.90
5176;DHT22;2607;50.934;6.934;2022-09-17T10:10:58;13.90;99.90
5176;DHT22;2607;50.934;6.934;2022-09-17T10:13:25;14.00;99.90
5176;DHT22;2607;50.934;6.934;2022-09-17T10:15:50;13.80;99.90
5176;DHT22;2607;50.934;6.934;2022-09-17T10:18:19;13.80;99.90
5176;DHT22;2607;50.934;6.934;2022-09-17T10:20:55;13.90;99.90
5176;DHT22;2607;50.934;6.934;2022-09-17T10:23:22;14.00;99.90
5176;DHT22;2607;50.934;6.934;2022-09-17T10:25:49;14.00;99.90
5176;DHT22;2607;50.934;6.934;2022-09-17T10:28:43;14.30;99.20
5176;DHT22;2607;50.934;6.934;2022-09-17T10:31:09;14.20;99.20
5176;DHT22;2607;50.934;6.934;2022-09-17T10:33:49;14.20;99.70
5176;DHT22;2607;50.934;6.934;2022-09-17T10:36:16;14.10;99.20
5176;DHT22;2607;50.934;6.934;2022-09-17T10:38:44;14.10;99.40
5176;DHT22;2607;50.934;6.934;2022-09-17T10:41:18;14.10;99.40
5176;DHT22;2607;50.934;6.934;2022-09-17T10:43:46;14.00;99.00
5176;DHT22;2607;50.934;6.934;2022-09-17T10:46:25;14.10;98.50
5176;DHT22;2607;50.934;6.934;2022-09-17T10:49:10;14.00;98.20
5176;DHT22;2607;50.934;6.934;2022-09-17T10:51:39;14.10;99.10
5176;DHT22;2607;50.934;6.934;2022-09-17T10:54:07;14.20;99.60
5176;DHT22;2607;50.934;6.934;2022-09-17T10:56:41;14.30;99.70
5176;DHT22;2607;50.934;6.934;2022-09-17T10:59:44;14.40;99.90
5176;DHT22;2607;50.934;6.934;2022-09-17T11:05:15;14.60;99.60
5176;DHT22;2607;50.934;6.934;2022-09-17T11:07:48;14.60;99.60
5176;DHT22;2607;50.934;6.934;2022-09-17T11:10:26;14.60;99.90
5176;DHT22;2607;50.934;6.934;2022-09-17T11:13:35;14.70;99.90
5176;DHT22;2607;50.934;6.934;2022-09-17T11:25:15;15.20;98.40
5176;DHT22;2607;50.934;6.934;2022-09-17T11:28:05;15.20;98.00
5176;DHT22;2607;50.934;6.934;2022-09-17T11:34:16;15.10;98.50
5176;DHT22;2607;50.934;6.934;2022-09-17T11:36:25;15.20;97.90
5176;DHT22;2607;50.934;6.934;2022-09-17T11:38:56;15.30;97.60
5176;DHT22;2607;50.934;6.934;2022-09-17T11:41:26;15.30;97.50
5176;DHT22;2607;50.934;6.934;2022-09-17T11:44:45;15.40;97.70
5176;DHT22;2607;50.934;6.934;2022-09-17T11:46:49;15.50;98.00
5176;DHT22;2607;50.934;6.934;2022-09-17T11:49:26;15.60;97.90
5176;DHT22;2607;50.934;6.934;2022-09-17T11:55:07;15.00;97.90
5176;DHT22;2607;50.934;6.934;2022-09-17T11:57:36;14.70;98.70
5176;DHT22;2607;50.934;6.934;2022-09-17T12:00:11;14.40;99.90
5176;DHT22;2607;50.934;6.934;2022-09-17T12:05:25;14.20;99.90
5176;DHT22;2607;50.934;6.934;2022-09-17T12:08:09;14.10;99.90
5176;DHT22;2607;50.934;6.934;2022-09-17T12:15:45;14.40;99.90
5176;DHT22;2607;50.934;6.934;2022-09-17T12:18:55;14.40;99.90
5176;DHT22;2607;50.934;6.934;2022-09-17T12:24:13;14.40;99.90
5176;DHT22;2607;50.934;6.934;2022-09-17T12:43:10;14.30;99.90
5176;DHT22;2607;50.934;6.934;2022-09-17T12:45:54;14.20;99.90
5176;DHT22;2607;50.934;6.934;2022-09-17T12:57:40;14.00;99.90
5176;DHT22;2607;50.934;6.934;2022-09-17T13:00:11;14.00;99.90
5176;DHT22;2607;50.934;6.934;2022-09-17T13:03:17;14.00;99.90
5176;DHT22;2607;50.934;6.934;2022-09-17T13:06:09;14.00;99.90
5176;DHT22;2607;50.934;6.934;2022-09-17T13:11:39;14.00;99.90
5176;DHT22;2607;50.934;6.934;2022-09-17T13:21:58;13.70;99.90
5176;DHT22;2607;50.934;6.934;2022-09-17T13:24:26;13.60;99.90
5176;DHT22;2607;50.934;6.934;2022-09-17T13:26:55;13.50;99.90
5176;DHT22;2607;50.934;6.934;2022-09-17T13:40:34;12.20;99.90
5176;DHT22;2607;50.934;6.934;2022-09-17T13:45:29;11.80;99.90
5176;DHT22;2607;50.934;6.934;2022-09-17T13:48:08;11.70;99.90
5176;DHT22;2607;50.934;6.934;2022-09-17T13:50:37;11.60;99.90
5176;DHT22;2607;50.934;6.934;2022-09-17T13:55:44;11.50;99.90
5176;DHT22;2607;50.934;6.934;2022-09-17T14:05:53;11.50;99.90
5176;DHT22;2607;50.934;6.934;2022-09-17T14:08:45;11.50;99.90
5176;DHT22;2607;50.934;6.934;2022-09-17T14:19:33;11.70;99.90
5176;DHT22;2607;50.934;6.934;2022-09-17T14:24:36;11.80;99.90
5176;DHT22;2607;50.934;6.934;2022-09-17T14:32:44;12.00;99.90
5176;DHT22;2607;50.934;6.934;2022-09-17T14:37:51;12.10;99.90
5176;DHT22;2607;50.934;6.934;2022-09-17T14:40:19;12.20;99.90
5176;DHT22;2607;50.934;6.934;2022-09-17T14:42:48;12.20;99.90
5176;DHT22;2607;50.934;6.934;2022-09-17T14:45:18;12.30;99.90
5176;DHT22;2607;50.934;6.934;2022-09-17T14:47:44;12.40;99.90
5176;DHT22;2607;50.934;6.934;2022-09-17T14:50:19;12.20;99.90
5176;DHT22;2607;50.934;6.934;2022-09-17T14:52:49;12.10;99.90
5176;DHT22;2607;50.934;6.934;2022-09-17T14:55:24;12.00;99.90
5176;DHT22;2607;50.934;6.934;2022-09-17T14:57:55;11.90;99.90
5176;DHT22;2607;50.934;6.934;2022-09-17T15:00:23;11.90;99.90
5176;DHT22;2607;50.934;6.934;2022-09-17T15:02:54;11.90;99.90
5176;DHT22;2607;50.934;6.934;2022-09-17T15:05:26;11.90;99.90
5176;DHT22;2607;50.934;6.934;2022-09-17T15:08:14;11.90;99.90
5176;DHT22;2607;50.934;6.934;2022-09-17T15:10:49;11.90;99.90
5176;DHT22;2607;50.934;6.934;2022-09-17T15:13:51;11.90;99.90
5176;DHT22;2607;50.934;6.934;2022-09-17T15:16:21;11.90;99.90
5176;DHT22;2607;50.934;6.934;2022-09-17T15:18:51;12.00;99.90
5176;DHT22;2607;50.934;6.934;2022-09-17T15:23:48;12.00;99.90
5176;DHT22;2607;50.934;6.934;2022-09-17T15:26:17;12.00;99.90
5176;DHT22;2607;50.934;6.934;2022-09-17T15:28:44;12.00;99.90
5176;DHT22;2607;50.934;6.934;2022-09-17T15:31:16;12.00;99.90
5176;DHT22;2607;50.934;6.934;2022-09-17T15:33:43;12.00;99.90
5176;DHT22;2607;50.934;6.934;2022-09-17T15:36:26;12.00;99.90
5176;DHT22;2607;50.934;6.934;2022-09-17T15:38:52;12.00;99.90
5176;DHT22;2607;50.934;6.934;2022-09-17T15:41:33;12.00;99.90
5176;DHT22;2607;50.934;6.934;2022-09-17T15:44:24;12.10;99.90
5176;DHT22;2607;50.934;6.934;2022-09-17T15:46:51;12.10;99.90
5176;DHT22;2607;50.934;6.934;2022-09-17T15:49:27;12.10;99.90
5176;DHT22;2607;50.934;6.934;2022-09-17T15:51:53;12.10;99.90
5176;DHT22;2607;50.934;6.934;2022-09-17T15:54:29;12.10;99.90
5176;DHT22;2607;50.934;6.934;2022-09-17T15:56:59;12.10;99.90
5176;DHT22;2607;50.934;6.934;2022-09-17T15:59:30;12.10;99.90
5176;DHT22;2607;50.934;6.934;2022-09-17T16:01:59;12.20;99.90
5176;DHT22;2607;50.934;6.934;2022-09-17T16:04:26;12.20;99.90
5176;DHT22;2607;50.934;6.934;2022-09-17T16:09:42;12.30;99.90
5176;DHT22;2607;50.934;6.934;2022-09-17T16:12:11;12.30;99.90
5176;DHT22;2607;50.934;6.934;2022-09-17T16:14:37;12.40;99.90
5176;DHT22;2607;50.934;6.934;2022-09-17T16:19:48;12.40;99.90
5176;DHT22;2607;50.934;6.934;2022-09-17T16:22:13;12.30;99.90
5176;DHT22;2607;50.934;6.934;2022-09-17T16:24:39;12.30;99.90
5176;DHT22;2607;50.934;6.934;2022-09-17T16:27:04;12.30;99.90
5176;DHT22;2607;50.934;6.934;2022-09-17T16:29:30;12.30;99.90
5176;DHT22;2607;50.934;6.934;2022-09-17T16:31:56;12.30;99.90
5176;DHT22;2607;50.934;6.934;2022-09-17T16:34:22;12.30;99.90
5176;DHT22;2607;50.934;6.934;2022-09-17T16:36:49;12.30;99.90
5176;DHT22;2607;50.934;6.934;2022-09-17T16:39:14;12.40;99.90
5176;DHT22;2607;50.934;6.934;2022-09-17T16:41:40;12.40;99.90
5176;DHT22;2607;50.934;6.934;2022-09-17T16:44:05;12.40;99.90
5176;DHT22;2607;50.934;6.934;2022-09-17T16:46:31;12.50;99.90
5176;DHT22;2607;50.934;6.934;2022-09-17T16:48:57;12.40;99.90
5176;DHT22;2607;50.934;6.934;2022-09-17T16:51:22;12.50;99.90
5176;DHT22;2607;50.934;6.934;2022-09-17T16:53:48;12.50;99.90
5176;DHT22;2607;50.934;6.934;2022-09-17T16:56:14;12.50;99.90
5176;DHT22;2607;50.934;6.934;2022-09-17T16:58:40;12.50;99.90
5176;DHT22;2607;50.934;6.934;2022-09-17T17:01:11;12.40;99.90
5176;DHT22;2607;50.934;6.934;2022-09-17T17:03:37;12.50;99.90
5176;DHT22;2607;50.934;6.934;2022-09-17T17:06:03;12.40;99.90
5176;DHT22;2607;50.934;6.934;2022-09-17T17:08:30;12.40;99.90
5176;DHT22;2607;50.934;6.934;2022-09-17T17:10:56;12.40;99.90
5176;DHT22;2607;50.934;6.934;2022-09-17T17:13:21;12.30;99.90
5176;DHT22;2607;50.934;6.934;2022-09-17T17:15:47;12.30;99.90
5176;DHT22;2607;50.934;6.934;2022-09-17T17:18:13;12.20;99.90
5176;DHT22;2607;50.934;6.934;2022-09-17T17:20:38;12.10;99.90
5176;DHT22;2607;50.934;6.934;2022-09-17T17:23:04;12.00;99.90
5176;DHT22;2607;50.934;6.934;2022-09-17T17:25:29;11.90;99.90
5176;DHT22;2607;50.934;6.934;2022-09-17T17:27:56;11.90;99.90
5176;DHT22;2607;50.934;6.934;2022-09-17T17:30:22;11.80;99.90
5176;DHT22;2607;50.934;6.934;2022-09-17T17:32:49;11.80;99.90
5176;DHT22;2607;50.934;6.934;2022-09-17T17:35:15;11.70;99.90
5176;DHT22;2607;50.934;6.934;2022-09-17T17:37:41;11.70;99.90
5176;DHT22;2607;50.934;6.934;2022-09-17T17:40:07;11.60;99.90
5176;DHT22;2607;50.934;6.934;2022-09-17T17:42:36;11.60;99.90
5176;DHT22;2607;50.934;6.934;2022-09-17T17:45:03;11.50;99.90
5176;DHT22;2607;50.934;6.934;2022-09-17T17:47:29;11.50;99.90
5176;DHT22;2607;50.934;6.934;2022-09-17T17:49:54;11.50;99.90
5176;DHT22;2607;50.934;6.934;2022-09-17T17:52:20;11.40;99.90
5176;DHT22;2607;50.934;6.934;2022-09-17T17:54:46;11.40;99.90
5176;DHT22;2607;50.934;6.934;2022-09-17T17:57:11;11.30;99.90
5176;DHT22;2607;50.934;6.934;2022-09-17T17:59:37;11.30;99.90
5176;DHT22;2607;50.934;6.934;2022-09-17T18:02:02;11.30;99.90
5176;DHT22;2607;50.934;6.934;2022-09-17T18:04:28;11.20;99.90
5176;DHT22;2607;50.934;6.934;2022-09-17T18:06:53;11.20;99.90
5176;DHT22;2607;50.934;6.934;2022-09-17T18:09:19;11.20;99.90
5176;DHT22;2607;50.934;6.934;2022-09-17T18:11:45;11.10;99.90
5176;DHT22;2607;50.934;6.934;2022-09-17T18:14:11;11.10;99.90
5176;DHT22;2607;50.934;6.934;2022-09-17T18:16:38;11.10;99.90
5176;DHT22;2607;50.934;6.934;2022-09-17T18:19:03;11.10;99.90
5176;DHT22;2607;50.934;6.934;2022-09-17T18:21:29;11.10;99.90
5176;DHT22;2607;50.934;6.934;2022-09-17T18:23:54;11.10;99.90
5176;DHT22;2607;50.934;6.934;2022-09-17T18:26:25;11.10;99.90
5176;DHT22;2607;50.934;6.934;2022-09-17T18:28:51;11.10;99.90
5176;DHT22;2607;50.934;6.934;2022-09-17T18:31:29;11.10;99.90
5176;DHT22;2607;50.934;6.934;2022-09-17T18:34:01;11.10;99.90
5176;DHT22;2607;50.934;6.934;2022-09-17T18:36:29;11.20;99.90
5176;DHT22;2607;50.934;6.934;2022-09-17T18:38:55;11.20;99.90
5176;DHT22;2607;50.934;6.934;2022-09-17T18:41:28;11.20;99.90
5176;DHT22;2607;50.934;6.934;2022-09-17T18:43:55;11.20;99.90
5176;DHT22;2607;50.934;6.934;2022-09-17T18:46:21;11.20;99.90
5176;DHT22;2607;50.934;6.934;2022-09-17T18:48:57;11.20;99.90
5176;DHT22;2607;50.934;6.934;2022-09-17T18:51:24;11.20;99.90
5176;DHT22;2607;50.934;6.934;2022-09-17T18:53:50;11.20;99.90
5176;DHT22;2607;50.934;6.934;2022-09-17T18:58:54;11.30;99.90
5176;DHT22;2607;50.934;6.934;2022-09-17T19:01:22;11.30;99.90
5176;DHT22;2607;50.934;6.934;2022-09-17T19:03:48;11.30;99.90
5176;DHT22;2607;50.934;6.934;2022-09-17T19:06:14;11.30;99.90
5176;DHT22;2607;50.934;6.934;2022-09-17T19:08:41;11.30;99.90
5176;DHT22;2607;50.934;6.934;2022-09-17T19:11:07;11.40;99.90
5176;DHT22;2607;50.934;6.934;2022-09-17T19:13:38;11.40;99.90
5176;DHT22;2607;50.934;6.934;2022-09-17T19:16:05;11.40;99.90
5176;DHT22;2607;50.934;6.934;2022-09-17T19:18:32;11.40;99.90
5176;DHT22;2607;50.934;6.934;2022-09-17T19:21:03;11.40;99.90